Flight Track Log - Related Links

Times and Time Zones

All times are in EST time to prevent confusion due to time zone crossing. See the AAL276 flight status page for this flight to view local times or setup timezone preferences in your user account.


Time Position Orientation Groundspeed Altitude Reporting Facility
EST Latitude Longitude Course Direction KTS MPH feet Rate Location/Type
Sat 07:06:39 AM 32.9000 -97.0333 65° Northeast 157 181 1,100  Level Dallas / Fort Worth TRACON
Sat 07:09:00 AM 32.6857 -96.7928 68° East  Level FlightAware Approximate
Sat 07:09:04 AM 32.7722 -96.9769 160° South 265 305 7,100  Level Fort Worth Center
Sat 07:10:00 AM 32.7318 -96.6549 68° East  Level FlightAware Approximate
Sat 07:10:04 AM 32.7897 -96.8792 78° East 301 346 9,400  Level Fort Worth Center
Sat 07:11:00 AM 32.7792 -96.5176 65° Northeast  Level FlightAware Approximate
Sat 07:11:05 AM 32.8031 -96.7650 82° East 339 390 11,300  Level Fort Worth Center
Sat 07:12:00 AM 32.8312 -96.3825 65° Northeast  Level FlightAware Approximate
Sat 07:12:05 AM 32.8211 -96.6381 80° East 390 449 13,900  Level Fort Worth Center
Sat 07:13:05 AM 32.8408 -96.5058 80° East 410 472 16,600 2,529 Climbing Fort Worth Center
Sat 07:14:06 AM 32.8600 -96.3661 81° East 430 495 19,000 2,380 Climbing Fort Worth Center
Sat 07:15:06 AM 32.8681 -96.2183 86° East 452 520 21,400 2,300 Climbing Fort Worth Center
Sat 07:16:06 AM 32.8706 -96.0603 89° East 466 536 23,600 2,150 Climbing Fort Worth Center
Sat 07:17:06 AM 32.8744 -95.9006 88° East 477 549 25,700 2,380 Climbing Fort Worth Center
Sat 07:18:07 AM 32.8767 -95.7403 89° East 485 558 28,400 2,083 Climbing Fort Worth Center
Sat 07:19:07 AM 32.8792 -95.5803 89° East 484 557 29,900 1,450 Climbing Fort Worth Center
Sat 07:20:07 AM 32.8817 -95.4139 89° East 502 578 31,300 1,587 Climbing Fort Worth Center
Sat 07:21:08 AM 32.8956 -95.2686 83° East 506 582 33,100 1,587 Climbing Fort Worth Center
Sat 07:22:08 AM 32.9211 -95.1089 79° East 496 571 34,500 1,450 Climbing Fort Worth Center
Sat 07:23:08 AM 32.9456 -94.9467 80° East 499 574 36,000 1,438 Climbing Fort Worth Center
Sat 07:24:09 AM 32.9414 -94.7753 92° East 518 596 37,400 1,289 Climbing Fort Worth Center
Sat 07:25:09 AM 32.9153 -94.6019 100° East 540 621 38,600 793 Climbing Fort Worth Center
Sat 07:26:10 AM 32.8919 -94.4297 99° East 533 613 39,000 198 Climbing Fort Worth Center
Sat 07:27:10 AM 32.8644 -94.2250 99° East 527 606 39,000  Level Fort Worth Center
Sat 07:28:10 AM 32.8400 -94.0556 100° East 527 606 39,000  Level Fort Worth Center
Sat 07:29:11 AM 32.8150 -93.8869 100° East 525 604 39,000  Level Fort Worth Center
Sat 07:30:11 AM 32.7906 -93.7178 100° East 524 603 39,000  Level Fort Worth Center
Sat 07:31:12 AM 32.7661 -93.5508 100° East 519 597 39,000  Level Fort Worth Center
Sat 07:32:12 AM 32.7394 -93.3761 100° East 526 605 39,000  Level Fort Worth Center
Sat 07:33:12 AM 32.7150 -93.2133 100° East 521 600 39,000  Level Fort Worth Center
Sat 07:34:13 AM 32.6894 -93.0442 100° East 523 602 39,000  Level Fort Worth Center
Sat 07:35:13 AM 32.6650 -92.8733 100° East 526 605 39,000  Level Fort Worth Center
Sat 07:36:14 AM 32.6383 -92.7047 101° East 523 602 39,000  Level Fort Worth Center
Sat 07:37:14 AM 32.6111 -92.5356 101° East 524 603 39,000  Level Fort Worth Center
Sat 07:38:15 AM 32.5872 -92.3742 100° East 525 604 39,000  Level Fort Worth Center
Sat 07:39:39 AM 32.5436 -92.1022 101° East 525 604 39,000  Level Fort Worth Center
Sat 07:40:40 AM 32.5156 -91.9319 101° East 524 603 39,000  Level Fort Worth Center
Sat 07:41:40 AM 32.4881 -91.7628 101° East 523 602 39,000  Level Fort Worth Center
Sat 07:42:41 AM 32.4608 -91.5936 101° East 522 601 39,000  Level Fort Worth Center
Sat 07:43:41 AM 32.4339 -91.4267 101° East 517 595 39,000  Level Fort Worth Center
Sat 07:44:42 AM 32.4050 -91.2567 101° East 522 601 39,000  Level Fort Worth Center
Sat 07:45:42 AM 32.3728 -91.0847 102° East 529 609 39,000  Level Fort Worth Center
Sat 07:46:43 AM 32.3444 -90.9156 101° East 527 606 39,000  Level Fort Worth Center
Sat 07:47:44 AM 32.3156 -90.7469 101° East 525 604 39,000  Level Fort Worth Center
Sat 07:48:44 AM 32.2858 -90.5775 102° East 525 604 39,000  Level Fort Worth Center
Sat 07:49:59 AM 32.2528 -90.3789 101° East 527 606 39,000  Level Memphis Center
Sat 07:51:00 AM 32.2233 -90.2122 102° East 525 604 39,000  Level Memphis Center
Sat 07:52:01 AM 32.1933 -90.0453 102° East 526 605 39,000  Level Memphis Center
Sat 07:53:02 AM 32.1575 -89.8453 102° East 525 604 39,000  Level Memphis Center
Sat 07:54:02 AM 32.1275 -89.6789 102° East 524 603 39,000  Level Memphis Center
Sat 07:55:03 AM 32.0972 -89.5122 102° East 524 603 39,000  Level Memphis Center
Sat 07:56:04 AM 32.0656 -89.3456 103° East 525 604 39,000  Level Memphis Center
Sat 07:57:05 AM 32.0350 -89.1806 102° East 522 601 39,000  Level Memphis Center
Sat 07:58:06 AM 32.0039 -89.0144 102° East 523 602 39,000  Level Memphis Center
Sat 07:59:07 AM 31.9725 -88.8486 103° East 523 602 39,000  Level Memphis Center
Sat 08:00:08 AM 31.9392 -88.6758 103° East 523 602 39,000  Level Memphis Center
Sat 08:01:08 AM 31.9081 -88.5081 102° East 523 602 39,000  Level Memphis Center
Sat 08:02:09 AM 31.8753 -88.3417 103° East 522 601 39,000 -934 Level Memphis Center
Sat 08:03:10 AM 31.8422 -88.1747 103° East 522 601 37,100 -1,820 Descending Memphis Center
Sat 08:04:11 AM 31.8097 -88.0056 103° East 526 605 35,300 -1,033 Descending Memphis Center
Sat 08:05:12 AM 31.7775 -87.8367 103° East 527 606 35,000 -148 Descending Memphis Center
Sat 08:06:13 AM 31.7436 -87.6694 103° East 526 605 35,000  Level Memphis Center
Sat 08:07:14 AM 31.7106 -87.4986 103° East 531 611 35,000  Level Memphis Center
Sat 08:07:47 AM 31.6919 -87.3994 102° East 524 603 35,000  Level Jacksonville Center
Sat 08:08:47 AM 31.6506 -87.2097 104° East 531 611 35,000  Level Jacksonville Center
Sat 08:09:47 AM 31.6144 -87.0372 104° East 538 619 35,000  Level Jacksonville Center
Sat 08:10:47 AM 31.5781 -86.8697 104° East 532 612 35,000  Level Jacksonville Center
Sat 08:11:47 AM 31.5414 -86.7000 104° East 532 612 35,000  Level Jacksonville Center
Sat 08:12:47 AM 31.5050 -86.5256 104° East 538 619 35,000  Level Jacksonville Center
Sat 08:13:47 AM 31.4681 -86.3536 104° East 543 625 35,000  Level Jacksonville Center
Sat 08:14:47 AM 31.4347 -86.1869 103° East 538 619 35,000  Level Jacksonville Center
Sat 08:15:47 AM 31.3975 -86.0153 104° East 538 619 35,000  Level Jacksonville Center
Sat 08:16:47 AM 31.3619 -85.8436 104° East 538 619 35,000  Level Jacksonville Center
Sat 08:17:47 AM 31.3261 -85.6725 104° East 538 619 35,000  Level Jacksonville Center
Sat 08:18:47 AM 31.2900 -85.5036 104° East 543 625 35,000  Level Jacksonville Center
Sat 08:19:47 AM 31.2494 -85.3322 105° East 536 617 35,000  Level Jacksonville Center
Sat 08:20:47 AM 31.1964 -85.1608 110° East 541 623 35,000  Level Jacksonville Center
Sat 08:21:47 AM 31.1258 -85.0017 117° Southeast 546 628 35,000  Level Jacksonville Center
Sat 08:22:47 AM 31.0575 -84.8400 116° Southeast 546 628 35,000  Level Jacksonville Center
Sat 08:23:47 AM 30.9847 -84.6786 118° Southeast 558 642 35,000  Level Jacksonville Center
Sat 08:24:47 AM 30.9139 -84.5175 117° Southeast 558 642 35,000  Level Jacksonville Center
Sat 08:25:47 AM 30.8428 -84.3589 118° Southeast 563 648 35,000 -400 Level Jacksonville Center
Sat 08:26:47 AM 30.7714 -84.2006 118° Southeast 563 648 34,200 -1,100 Descending Jacksonville Center
Sat 08:27:47 AM 30.7019 -84.0403 117° Southeast 557 641 32,800 -1,500 Descending Jacksonville Center
Sat 08:28:47 AM 30.6322 -83.8872 118° Southeast 557 641 31,200 -1,650 Descending Jacksonville Center
Sat 08:29:47 AM 30.5644 -83.7369 118° Southeast 545 627 29,500 -1,650 Descending Jacksonville Center
Sat 08:30:47 AM 30.5067 -83.6039 117° Southeast 524 603 27,900 -1,250 Descending Jacksonville Center
Sat 08:31:47 AM 30.4428 -83.4611 117° Southeast 513 590 27,000 -500 Descending Jacksonville Center
Sat 08:32:47 AM 30.3744 -83.3139 118° Southeast 508 585 26,900  Descending Jacksonville Center
Sat 08:33:47 AM 30.3081 -83.1692 118° Southeast 508 585 27,000 50 Climbing Jacksonville Center
Sat 08:34:47 AM 30.2436 -83.0297 118° Southeast 503 579 27,000  Level Jacksonville Center
Sat 08:35:47 AM 30.1789 -82.8853 117° Southeast 498 573 27,000  Level Jacksonville Center
Sat 08:36:47 AM 30.1056 -82.7317 119° Southeast 498 573 27,000 -100 Level Jacksonville Center
Sat 08:37:47 AM 30.0386 -82.5903 119° Southeast 498 573 26,800 -1,000 Descending Jacksonville Center
Sat 08:38:47 AM 29.9631 -82.4561 123° Southeast 498 573 25,000 -900 Descending Jacksonville Center
Sat 08:39:47 AM 29.8481 -82.3897 153° Southeast 452 520 25,000  Level Jacksonville Center
Sat 08:40:47 AM 29.7286 -82.3328 158° South 452 520 25,000 -1,050 Level Jacksonville Center
Sat 08:41:47 AM 29.6094 -82.2761 158° South 452 520 22,900 -2,500 Descending Jacksonville Center
Sat 08:42:47 AM 29.4922 -82.2197 157° South 458 527 20,000 -2,650 Descending Jacksonville Center
Sat 08:43:47 AM 29.3750 -82.1658 158° South 458 527 17,600 -2,100 Descending Jacksonville Center
Sat 08:44:47 AM 29.2600 -82.1094 157° South 458 527 15,800 -1,600 Descending Jacksonville Center
Sat 08:45:47 AM 29.1531 -82.0603 158° South 445 512 14,400 -1,350 Descending Jacksonville Center
Sat 08:46:47 AM 29.0483 -82.0089 157° South 425 489 13,100 -1,250 Descending Jacksonville Center
Sat 08:47:47 AM 28.9522 -81.9672 159° South 398 458 11,900 -1,050 Descending Jacksonville Center
Sat 08:48:47 AM 28.8703 -81.9133 150° Southeast 366 421 11,000 -550 Descending Jacksonville Center
Sat 08:49:47 AM 28.8569 -81.8069 98° East 299 344 10,800 -650 Descending Jacksonville Center
Sat 08:50:47 AM 28.8644 -81.7072 85° East 294 338 9,700 -950 Descending Jacksonville Center
Sat 08:51:47 AM 28.8656 -81.6169 89° East 301 346 8,900 -1,100 Descending Jacksonville Center
Sat 08:52:47 AM 28.8294 -81.5322 116° Southeast 301 346 7,500 -1,000 Descending Jacksonville Center
Sat 08:53:47 AM 28.7600 -81.4858 150° Southeast 261 300 6,900 -700 Descending Jacksonville Center
Sat 08:54:47 AM 28.7467 -81.4150 102° East 247 284 6,100 -1,235 Descending Jacksonville Center
Sat 08:56:03 AM 28.6833 -81.3500 138° Southeast 220 253 4,100 -1,292 Descending Orlando TRACON
Sat 08:56:57 AM 28.6333 -81.3500 180° South 228 262 3,300 -684 Descending Orlando TRACON
Sat 08:57:57 AM 28.5667 -81.3333 168° South 169 194 2,800 -667 Descending Orlando TRACON
Sat 08:59:03 AM 28.5167 -81.3333 180° South 169 194 1,900 -898 Descending Orlando TRACON
Sat 09:00:04 AM 28.4833 -81.3167 156° South 146 168 900 -984 Descending Orlando TRACON

Login

Don't have an account? Register now (free) for customized features, flight alerts, and more!